PRIVATE WETTERSTATION BILLIGHEIM-ALLFELD                       ZURCK
Wetterdaten: Donnerstag, 31.08.2017
Datum Zeit Temp. A. Temp. A. min Temp. A. max Feuchte A. Luftdruck Regen Wind Richtung Richtung Sonnenschein ET Solar Taupunkt Windchill Windben Empfang
31.08.2017 00:00 18,5 C 18,5 C 18,6 C 88 % 1009,6 hPa 0,0 l/m 0,0 km/h (0 Bft) N 0 0 min 0,025 mm 0 W/m 16,5 C 18,5 C 0,0 km/h (0 Bft) 97 %
31.08.2017 00:10 18,4 C 18,4 C 18,5 C 88 % 1009,5 hPa 0,0 l/m 0,0 km/h (0 Bft) N 0 0 min 0,000 mm 0 W/m 16,4 C 18,4 C 0,0 km/h (0 Bft) 97 %
31.08.2017 00:20 18,3 C 18,3 C 18,4 C 88 % 1009,8 hPa 0,0 l/m 0,0 km/h (0 Bft) N 0 0 min 0,000 mm 0 W/m 16,3 C 18,3 C 0,0 km/h (0 Bft) 97 %
31.08.2017 00:30 18,3 C 18,3 C 18,3 C 88 % 1010,1 hPa 0,0 l/m 0,0 km/h (0 Bft) N 0 0 min 0,000 mm 0 W/m 16,3 C 18,3 C 0,0 km/h (0 Bft) 98 %
31.08.2017 00:40 18,3 C 18,3 C 18,3 C 88 % 1010,0 hPa 0,0 l/m 0,0 km/h (0 Bft) N 0 0 min 0,000 mm 0 W/m 16,3 C 18,3 C 0,0 km/h (0 Bft) 98 %
31.08.2017 00:50 18,3 C 18,3 C 18,3 C 88 % 1009,9 hPa 0,0 l/m 0,0 km/h (0 Bft) N 0 0 min 0,000 mm 0 W/m 16,3 C 18,3 C 0,0 km/h (0 Bft) 97 %
31.08.2017 01:00 18,2 C 18,2 C 18,3 C 88 % 1010,0 hPa 0,0 l/m 0,0 km/h (0 Bft) N 0 0 min 0,000 mm 0 W/m 16,2 C 18,2 C 0,0 km/h (0 Bft) 98 %
31.08.2017 01:10 18,1 C 18,1 C 18,2 C 88 % 1010,0 hPa 0,0 l/m 0,0 km/h (0 Bft) N 0 0 min 0,000 mm 0 W/m 16,1 C 18,1 C 0,0 km/h (0 Bft) 97 %
31.08.2017 01:20 18,1 C 18,1 C 18,1 C 88 % 1010,2 hPa 0,0 l/m 0,0 km/h (0 Bft) N 0 0 min 0,000 mm 0 W/m 16,1 C 18,1 C 0,0 km/h (0 Bft) 98 %
31.08.2017 01:30 18,0 C 18,0 C 18,1 C 88 % 1010,2 hPa 0,0 l/m 0,0 km/h (0 Bft) N 0 0 min 0,000 mm 0 W/m 16,0 C 18,0 C 0,0 km/h (0 Bft) 97 %
31.08.2017 01:40 17,9 C 17,9 C 18,1 C 88 % 1010,1 hPa 0,0 l/m 0,0 km/h (0 Bft) N 0 0 min 0,000 mm 0 W/m 15,9 C 17,9 C 0,0 km/h (0 Bft) 98 %
31.08.2017 01:50 17,9 C 17,9 C 17,9 C 88 % 1010,1 hPa 0,0 l/m 0,0 km/h (0 Bft) N 0 0 min 0,000 mm 0 W/m 15,9 C 17,9 C 0,0 km/h (0 Bft) 98 %
31.08.2017 02:00 17,8 C 17,7 C 17,9 C 88 % 1010,1 hPa 0,0 l/m 0,0 km/h (0 Bft) N 0 0 min 0,000 mm 0 W/m 15,8 C 17,8 C 0,0 km/h (0 Bft) 97 %
31.08.2017 02:10 17,7 C 17,7 C 17,8 C 88 % 1010,1 hPa 0,0 l/m 0,0 km/h (0 Bft) N 0 0 min 0,000 mm 0 W/m 15,7 C 17,7 C 0,0 km/h (0 Bft) 98 %
31.08.2017 02:20 17,8 C 17,7 C 17,8 C 88 % 1010,0 hPa 0,0 l/m 0,0 km/h (0 Bft) N 0 0 min 0,000 mm 0 W/m 15,8 C 17,8 C 0,0 km/h (0 Bft) 97 %
31.08.2017 02:30 17,7 C 17,7 C 17,8 C 88 % 1010,0 hPa 0,0 l/m 0,0 km/h (0 Bft) N 0 0 min 0,000 mm 0 W/m 15,7 C 17,7 C 0,0 km/h (0 Bft) 98 %
31.08.2017 02:40 17,8 C 17,7 C 17,8 C 88 % 1009,9 hPa 0,0 l/m 0,0 km/h (0 Bft) N 0 0 min 0,000 mm 0 W/m 15,8 C 17,8 C 0,0 km/h (0 Bft) 97 %
31.08.2017 02:50 17,8 C 17,8 C 17,8 C 88 % 1009,8 hPa 0,0 l/m 0,0 km/h (0 Bft) N 0 0 min 0,000 mm 0 W/m 15,8 C 17,8 C 0,0 km/h (0 Bft) 98 %
31.08.2017 03:00 17,8 C 17,8 C 17,8 C 89 % 1009,8 hPa 0,2 l/m 0,0 km/h (0 Bft) N 0 0 min 0,000 mm 0 W/m 16,0 C 17,8 C 0,0 km/h (0 Bft) 98 %
31.08.2017 03:10 17,8 C 17,8 C 17,8 C 89 % 1009,7 hPa 0,0 l/m 0,0 km/h (0 Bft) N 0 0 min 0,000 mm 0 W/m 16,0 C 17,8 C 0,0 km/h (0 Bft) 96 %
31.08.2017 03:20 17,8 C 17,7 C 17,8 C 89 % 1009,6 hPa 0,0 l/m 0,0 km/h (0 Bft) N 0 0 min 0,000 mm 0 W/m 16,0 C 17,8 C 0,0 km/h (0 Bft) 98 %
31.08.2017 03:30 17,7 C 17,7 C 17,8 C 89 % 1009,7 hPa 0,0 l/m 0,0 km/h (0 Bft) N 0 0 min 0,000 mm 0 W/m 15,9 C 17,7 C 0,0 km/h (0 Bft) 97 %
31.08.2017 03:40 17,7 C 17,7 C 17,7 C 89 % 1009,8 hPa 0,0 l/m 0,0 km/h (0 Bft) N 0 0 min 0,000 mm 0 W/m 15,9 C 17,7 C 0,0 km/h (0 Bft) 98 %
31.08.2017 03:50 17,7 C 17,7 C 17,7 C 89 % 1009,7 hPa 0,0 l/m 0,0 km/h (0 Bft) N 0 0 min 0,000 mm 0 W/m 15,9 C 17,7 C 0,0 km/h (0 Bft) 97 %
31.08.2017 04:00 17,9 C 17,7 C 17,9 C 89 % 1009,5 hPa 0,0 l/m 0,0 km/h (0 Bft) S-SO 157 0 min 0,000 mm 0 W/m 16,1 C 17,9 C 1,6 km/h (1 Bft) 98 %
31.08.2017 04:10 17,9 C 17,8 C 17,9 C 89 % 1009,5 hPa 0,0 l/m 0,0 km/h (0 Bft) N 0 0 min 0,000 mm 0 W/m 16,1 C 17,9 C 0,0 km/h (0 Bft) 98 %
31.08.2017 04:20 17,8 C 17,8 C 17,9 C 89 % 1009,4 hPa 0,0 l/m 0,0 km/h (0 Bft) N 0 0 min 0,000 mm 0 W/m 16,0 C 17,8 C 0,0 km/h (0 Bft) 98 %
31.08.2017 04:30 17,8 C 17,8 C 17,8 C 89 % 1009,5 hPa 0,0 l/m 0,0 km/h (0 Bft) N 0 0 min 0,000 mm 0 W/m 16,0 C 17,8 C 0,0 km/h (0 Bft) 98 %
31.08.2017 04:40 17,8 C 17,8 C 17,8 C 89 % 1009,4 hPa 0,0 l/m 0,0 km/h (0 Bft) N 0 0 min 0,000 mm 0 W/m 16,0 C 17,8 C 0,0 km/h (0 Bft) 97 %
31.08.2017 04:50 17,7 C 17,7 C 17,8 C 89 % 1009,4 hPa 0,0 l/m 0,0 km/h (0 Bft) N 0 0 min 0,000 mm 0 W/m 15,9 C 17,7 C 0,0 km/h (0 Bft) 98 %
31.08.2017 05:00 17,7 C 17,7 C 17,8 C 89 % 1009,4 hPa 0,0 l/m 0,0 km/h (0 Bft) N 0 0 min 0,000 mm 0 W/m 15,9 C 17,7 C 0,0 km/h (0 Bft) 97 %
31.08.2017 05:10 17,7 C 17,7 C 17,7 C 89 % 1009,4 hPa 0,0 l/m 0,0 km/h (0 Bft) N 0 0 min 0,000 mm 0 W/m 15,9 C 17,7 C 0,0 km/h (0 Bft) 97 %
31.08.2017 05:20 17,7 C 17,7 C 17,7 C 89 % 1009,5 hPa 0,0 l/m 0,0 km/h (0 Bft) N 0 0 min 0,000 mm 0 W/m 15,9 C 17,7 C 0,0 km/h (0 Bft) 98 %
31.08.2017 05:30 17,8 C 17,7 C 17,8 C 89 % 1009,4 hPa 0,0 l/m 0,0 km/h (0 Bft) N 0 0 min 0,000 mm 0 W/m 16,0 C 17,8 C 0,0 km/h (0 Bft) 98 %
31.08.2017 05:40 17,8 C 17,8 C 17,8 C 89 % 1009,5 hPa 0,0 l/m 0,0 km/h (0 Bft) N 0 0 min 0,000 mm 0 W/m 16,0 C 17,8 C 0,0 km/h (0 Bft) 98 %
31.08.2017 05:50 17,7 C 17,7 C 17,8 C 89 % 1009,4 hPa 0,0 l/m 0,0 km/h (0 Bft) N 0 0 min 0,000 mm 0 W/m 15,9 C 17,7 C 0,0 km/h (0 Bft) 97 %
31.08.2017 06:00 17,6 C 17,6 C 17,7 C 89 % 1009,3 hPa 0,0 l/m 0,0 km/h (0 Bft) N 0 0 min 0,000 mm 0 W/m 15,8 C 17,6 C 0,0 km/h (0 Bft) 98 %
31.08.2017 06:10 17,6 C 17,6 C 17,6 C 89 % 1009,3 hPa 0,0 l/m 0,0 km/h (0 Bft) N 0 0 min 0,000 mm 0 W/m 15,8 C 17,6 C 0,0 km/h (0 Bft) 97 %
31.08.2017 06:20 17,5 C 17,5 C 17,6 C 89 % 1009,3 hPa 0,0 l/m 0,0 km/h (0 Bft) N 0 0 min 0,000 mm 0 W/m 15,7 C 17,5 C 0,0 km/h (0 Bft) 97 %
31.08.2017 06:30 17,4 C 17,4 C 17,5 C 89 % 1009,3 hPa 0,0 l/m 0,0 km/h (0 Bft) N 0 0 min 0,000 mm 0 W/m 15,6 C 17,4 C 0,0 km/h (0 Bft) 98 %
31.08.2017 06:40 17,4 C 17,4 C 17,4 C 89 % 1009,2 hPa 0,0 l/m 0,0 km/h (0 Bft) N 0 0 min 0,000 mm 0 W/m 15,6 C 17,4 C 0,0 km/h (0 Bft) 97 %
31.08.2017 06:50 17,4 C 17,4 C 17,4 C 89 % 1009,8 hPa 0,0 l/m 0,0 km/h (0 Bft) N 0 0 min 0,000 mm 0 W/m 15,6 C 17,4 C 0,0 km/h (0 Bft) 98 %
31.08.2017 07:00 17,4 C 17,4 C 17,4 C 89 % 1010,1 hPa 0,0 l/m 0,0 km/h (0 Bft) S-SO 157 0 min 0,000 mm 7 W/m 15,6 C 17,4 C 1,6 km/h (1 Bft) 97 %
31.08.2017 07:10 17,5 C 17,4 C 17,5 C 89 % 1009,7 hPa 0,0 l/m 0,0 km/h (0 Bft) N 0 0 min 0,000 mm 12 W/m 15,7 C 17,5 C 0,0 km/h (0 Bft) 98 %
31.08.2017 07:20 17,6 C 17,5 C 17,6 C 89 % 1009,7 hPa 0,0 l/m 0,0 km/h (0 Bft) N 0 0 min 0,000 mm 26 W/m 15,8 C 17,6 C 0,0 km/h (0 Bft) 97 %
31.08.2017 07:30 17,7 C 17,6 C 17,7 C 89 % 1009,9 hPa 0,0 l/m 0,0 km/h (0 Bft) N 0 0 min 0,000 mm 39 W/m 15,9 C 17,7 C 0,0 km/h (0 Bft) 98 %
31.08.2017 07:40 17,9 C 17,7 C 17,9 C 89 % 1009,7 hPa 0,0 l/m 0,0 km/h (0 Bft) N 0 0 min 0,000 mm 30 W/m 16,1 C 17,9 C 0,0 km/h (0 Bft) 98 %
31.08.2017 07:50 17,9 C 17,9 C 17,9 C 89 % 1009,4 hPa 0,0 l/m 0,0 km/h (0 Bft) S-SO 157 0 min 0,000 mm 69 W/m 16,1 C 17,9 C 1,6 km/h (1 Bft) 97 %
31.08.2017 08:00 18,0 C 17,9 C 18,0 C 89 % 1010,0 hPa 0,2 l/m 0,0 km/h (0 Bft) N 0 0 min 0,025 mm 74 W/m 16,2 C 18,0 C 0,0 km/h (0 Bft) 98 %
31.08.2017 08:10 18,0 C 18,0 C 18,1 C 89 % 1011,3 hPa 0,8 l/m 4,8 km/h (1 Bft) S 180 0 min 0,000 mm 9 W/m 16,2 C 18,0 C 11,3 km/h (2 Bft) 97 %
31.08.2017 08:20 18,0 C 18,0 C 18,0 C 89 % 1011,3 hPa 2,8 l/m 4,8 km/h (1 Bft) W-SW 247 0 min 0,000 mm 5 W/m 16,2 C 18,0 C 16,1 km/h (3 Bft) 98 %
31.08.2017 08:30 18,0 C 18,0 C 18,1 C 89 % 1011,4 hPa 1,2 l/m 6,4 km/h (2 Bft) SW 225 0 min 0,000 mm 9 W/m 16,2 C 18,0 C 19,3 km/h (3 Bft) 98 %
31.08.2017 08:40 18,0 C 18,0 C 18,0 C 89 % 1011,3 hPa 0,8 l/m 4,8 km/h (1 Bft) S-SW 202 0 min 0,000 mm 16 W/m 16,2 C 18,0 C 12,9 km/h (3 Bft) 98 %
31.08.2017 08:50 18,0 C 18,0 C 18,0 C 89 % 1011,2 hPa 0,0 l/m 4,8 km/h (1 Bft) S-SW 202 0 min 0,000 mm 42 W/m 16,2 C 18,0 C 9,7 km/h (2 Bft) 98 %
31.08.2017 09:00 18,1 C 18,0 C 18,1 C 89 % 1011,4 hPa 0,0 l/m 6,4 km/h (2 Bft) S-SW 202 0 min 0,025 mm 65 W/m 16,3 C 18,1 C 11,3 km/h (2 Bft) 97 %
31.08.2017 09:10 18,2 C 18,1 C 18,2 C 89 % 1011,5 hPa 0,0 l/m 8,0 km/h (2 Bft) S-SW 202 0 min 0,000 mm 65 W/m 16,4 C 17,5 C 16,1 km/h (3 Bft) 98 %
31.08.2017 09:20 18,2 C 18,2 C 18,2 C 89 % 1011,8 hPa 0,0 l/m 6,4 km/h (2 Bft) S-SW 202 0 min 0,000 mm 76 W/m 16,4 C 18,2 C 14,5 km/h (3 Bft) 97 %
31.08.2017 09:30 18,3 C 18,2 C 18,3 C 89 % 1011,7 hPa 0,0 l/m 6,4 km/h (2 Bft) S-SW 202 0 min 0,000 mm 60 W/m 16,5 C 18,3 C 14,5 km/h (3 Bft) 98 %
31.08.2017 09:40 18,3 C 18,3 C 18,3 C 89 % 1011,8 hPa 0,0 l/m 3,2 km/h (1 Bft) S-SW 202 0 min 0,000 mm 72 W/m 16,5 C 18,3 C 9,7 km/h (2 Bft) 98 %
31.08.2017 09:50 18,4 C 18,3 C 18,4 C 89 % 1011,8 hPa 0,0 l/m 3,2 km/h (1 Bft) S 180 0 min 0,000 mm 77 W/m 16,6 C 18,4 C 9,7 km/h (2 Bft) 97 %
31.08.2017 10:00 18,4 C 18,4 C 18,4 C 89 % 1012,0 hPa 0,0 l/m 4,8 km/h (1 Bft) S-SW 202 0 min 0,051 mm 58 W/m 16,6 C 18,4 C 11,3 km/h (2 Bft) 98 %
31.08.2017 10:10 18,4 C 18,4 C 18,4 C 89 % 1012,0 hPa 0,0 l/m 6,4 km/h (2 Bft) S-SW 202 0 min 0,000 mm 149 W/m 16,6 C 18,4 C 17,7 km/h (3 Bft) 97 %
31.08.2017 10:30 18,5 C 18,4 C 18,5 C 89 % 1012,2 hPa 0,0 l/m 7,5 km/h (2 Bft) SW 215 0 min 0,000 mm 65 W/m 16,7 C 18,0 C 14,5 km/h (3 Bft) 99 %
31.08.2017 10:40 18,3 C 18,3 C 18,5 C 89 % 1012,5 hPa 0,2 l/m 6,2 km/h (2 Bft) SW 222 0 min 0,000 mm 23 W/m 16,5 C 18,3 C 20,9 km/h (4 Bft) 100 %
31.08.2017 10:50 18,1 C 18,1 C 18,3 C 89 % 1013,0 hPa 0,6 l/m 10,1 km/h (2 Bft) S-SW 199 0 min 0,000 mm 58 W/m 16,3 C 16,5 C 27,4 km/h (4 Bft) 100 %
31.08.2017 11:00 17,7 C 17,7 C 18,1 C 89 % 1013,0 hPa 0,2 l/m 11,2 km/h (2 Bft) W 269 0 min 0,052 mm 137 W/m 15,9 C 15,7 C 29,0 km/h (5 Bft) 100 %
31.08.2017 11:10 17,4 C 17,4 C 17,7 C 89 % 1013,1 hPa 0,2 l/m 7,4 km/h (2 Bft) W 263 10 min 0,000 mm 171 W/m 15,6 C 16,9 C 22,5 km/h (4 Bft) 100 %
31.08.2017 11:20 17,4 C 17,4 C 17,4 C 89 % 1013,1 hPa 0,0 l/m 6,5 km/h (2 Bft) SW 229 0 min 0,000 mm 127 W/m 15,6 C 17,4 C 14,5 km/h (3 Bft) 100 %
31.08.2017 11:30 17,4 C 17,4 C 17,4 C 89 % 1013,1 hPa 0,0 l/m 7,4 km/h (2 Bft) SW 227 0 min 0,000 mm 128 W/m 15,6 C 16,9 C 24,1 km/h (4 Bft) 100 %
31.08.2017 11:40 17,4 C 17,4 C 17,4 C 89 % 1013,2 hPa 0,0 l/m 6,6 km/h (2 Bft) W-SW 237 10 min 0,000 mm 218 W/m 15,6 C 17,3 C 20,9 km/h (4 Bft) 100 %
31.08.2017 11:50 17,5 C 17,4 C 17,5 C 89 % 1013,3 hPa 0,0 l/m 9,0 km/h (2 Bft) W 272 10 min 0,000 mm 185 W/m 15,7 C 16,3 C 24,1 km/h (4 Bft) 100 %
31.08.2017 12:00 17,6 C 17,5 C 17,6 C 89 % 1013,3 hPa 0,0 l/m 7,6 km/h (2 Bft) S-SW 200 10 min 0,101 mm 155 W/m 15,8 C 17,0 C 20,9 km/h (4 Bft) 100 %
31.08.2017 12:10 17,7 C 17,6 C 17,7 C 89 % 1013,3 hPa 0,0 l/m 6,5 km/h (2 Bft) SW 219 10 min 0,000 mm 281 W/m 15,9 C 17,7 C 17,7 km/h (3 Bft) 100 %
31.08.2017 12:20 18,0 C 17,7 C 18,0 C 89 % 1013,9 hPa 0,0 l/m 9,6 km/h (2 Bft) S-SW 209 10 min 0,000 mm 209 W/m 16,2 C 16,6 C 22,5 km/h (4 Bft) 100 %
31.08.2017 12:30 18,0 C 18,0 C 18,1 C 89 % 1014,1 hPa 0,0 l/m 10,0 km/h (2 Bft) S-SW 209 0 min 0,000 mm 141 W/m 16,2 C 16,4 C 22,5 km/h (4 Bft) 100 %
31.08.2017 12:40 17,8 C 17,8 C 18,0 C 89 % 1014,2 hPa 0,0 l/m 11,8 km/h (2 Bft) S-SW 207 0 min 0,000 mm 127 W/m 16,0 C 15,6 C 24,1 km/h (4 Bft) 100 %
31.08.2017 12:50 17,8 C 17,8 C 17,8 C 89 % 1014,4 hPa 0,0 l/m 9,6 km/h (2 Bft) SW 215 0 min 0,000 mm 109 W/m 16,0 C 16,4 C 25,7 km/h (4 Bft) 100 %
31.08.2017 13:00 17,6 C 17,6 C 17,8 C 89 % 1014,4 hPa 0,0 l/m 11,9 km/h (2 Bft) W-SW 254 10 min 0,102 mm 279 W/m 15,8 C 15,3 C 24,1 km/h (4 Bft) 100 %
31.08.2017 13:10 17,8 C 17,6 C 17,8 C 89 % 1014,4 hPa 0,0 l/m 9,6 km/h (2 Bft) SW 227 10 min 0,000 mm 352 W/m 16,0 C 16,4 C 20,9 km/h (4 Bft) 99 %
31.08.2017 13:20 17,8 C 17,8 C 17,8 C 89 % 1014,7 hPa 0,0 l/m 12,4 km/h (3 Bft) S-SW 199 0 min 0,000 mm 111 W/m 16,0 C 15,4 C 25,7 km/h (4 Bft) 100 %
31.08.2017 13:30 17,7 C 17,7 C 17,8 C 89 % 1014,8 hPa 0,0 l/m 9,7 km/h (2 Bft) SW 231 10 min 0,000 mm 290 W/m 15,9 C 16,2 C 20,9 km/h (4 Bft) 100 %
31.08.2017 13:40 17,9 C 17,7 C 17,9 C 89 % 1014,7 hPa 0,0 l/m 10,5 km/h (2 Bft) S-SW 202 10 min 0,000 mm 376 W/m 16,1 C 16,1 C 20,9 km/h (4 Bft) 100 %
31.08.2017 13:50 17,9 C 17,9 C 18,0 C 88 % 1014,8 hPa 0,0 l/m 10,3 km/h (2 Bft) S-SW 211 0 min 0,000 mm 69 W/m 15,9 C 16,2 C 20,9 km/h (4 Bft) 100 %
31.08.2017 14:00 17,6 C 17,6 C 17,9 C 88 % 1015,0 hPa 0,0 l/m 9,9 km/h (2 Bft) W-SW 254 0 min 0,127 mm 21 W/m 15,6 C 16,0 C 22,5 km/h (4 Bft) 100 %
31.08.2017 14:10 17,3 C 17,3 C 17,6 C 88 % 1015,3 hPa 0,0 l/m 10,4 km/h (2 Bft) W-NW 286 0 min 0,000 mm 35 W/m 15,3 C 15,5 C 20,9 km/h (4 Bft) 99 %
31.08.2017 14:20 17,2 C 17,2 C 17,3 C 89 % 1015,4 hPa 0,0 l/m 6,9 km/h (2 Bft) W-NW 290 0 min 0,000 mm 69 W/m 15,4 C 17,0 C 14,5 km/h (3 Bft) 99 %
31.08.2017 14:30 17,1 C 17,1 C 17,2 C 89 % 1015,5 hPa 0,0 l/m 6,3 km/h (2 Bft) NW 308 10 min 0,000 mm 232 W/m 15,3 C 17,1 C 12,9 km/h (3 Bft) 100 %
31.08.2017 14:40 17,1 C 17,1 C 17,1 C 88 % 1015,6 hPa 0,0 l/m 7,1 km/h (2 Bft) W-NW 295 0 min 0,000 mm 70 W/m 15,1 C 16,7 C 14,5 km/h (3 Bft) 100 %
31.08.2017 14:50 17,1 C 17,1 C 17,1 C 88 % 1015,7 hPa 0,0 l/m 4,7 km/h (1 Bft) W 268 0 min 0,000 mm 128 W/m 15,1 C 17,1 C 16,1 km/h (3 Bft) 100 %
31.08.2017 15:00 17,2 C 17,1 C 17,2 C 87 % 1016,0 hPa 0,0 l/m 5,4 km/h (1 Bft) W 271 10 min 0,076 mm 193 W/m 15,0 C 17,2 C 11,3 km/h (2 Bft) 100 %
31.08.2017 15:10 17,3 C 17,2 C 17,3 C 87 % 1016,2 hPa 0,0 l/m 5,5 km/h (1 Bft) W 266 10 min 0,000 mm 218 W/m 15,1 C 17,3 C 16,1 km/h (3 Bft) 100 %
31.08.2017 15:20 17,5 C 17,3 C 17,5 C 86 % 1016,1 hPa 0,0 l/m 3,9 km/h (1 Bft) W 270 10 min 0,000 mm 373 W/m 15,1 C 17,5 C 11,3 km/h (2 Bft) 100 %
31.08.2017 15:30 17,8 C 17,5 C 17,8 C 83 % 1016,2 hPa 0,0 l/m 8,6 km/h (2 Bft) NW 309 0 min 0,000 mm 128 W/m 14,9 C 16,8 C 19,3 km/h (3 Bft) 100 %
31.08.2017 15:40 17,8 C 17,8 C 17,8 C 82 % 1016,3 hPa 0,0 l/m 7,4 km/h (2 Bft) NW 311 0 min 0,000 mm 79 W/m 14,7 C 17,3 C 16,1 km/h (3 Bft) 100 %
31.08.2017 15:50 17,6 C 17,6 C 17,8 C 82 % 1016,2 hPa 0,0 l/m 9,2 km/h (2 Bft) W-NW 300 0 min 0,000 mm 72 W/m 14,5 C 16,3 C 16,1 km/h (3 Bft) 100 %
31.08.2017 16:00 17,4 C 17,4 C 17,6 C 84 % 1016,5 hPa 0,0 l/m 5,5 km/h (1 Bft) W-NW 285 0 min 0,102 mm 74 W/m 14,7 C 17,4 C 16,1 km/h (3 Bft) 99 %
31.08.2017 16:10 17,2 C 17,2 C 17,4 C 84 % 1016,5 hPa 0,0 l/m 5,2 km/h (1 Bft) W 259 0 min 0,000 mm 42 W/m 14,5 C 17,2 C 14,5 km/h (3 Bft) 100 %
31.08.2017 16:20 17,1 C 17,0 C 17,2 C 84 % 1016,8 hPa 0,0 l/m 3,3 km/h (1 Bft) W 259 0 min 0,000 mm 32 W/m 14,4 C 17,1 C 9,7 km/h (2 Bft) 100 %
31.08.2017 16:30 16,8 C 16,8 C 17,1 C 84 % 1016,8 hPa 0,0 l/m 2,6 km/h (1 Bft) W-SW 258 0 min 0,000 mm 28 W/m 14,1 C 16,8 C 8,0 km/h (2 Bft) 100 %
31.08.2017 16:40 16,7 C 16,7 C 16,8 C 85 % 1016,9 hPa 0,0 l/m 1,0 km/h (0 Bft) W-SW 258 0 min 0,000 mm 33 W/m 14,2 C 16,7 C 6,4 km/h (2 Bft) 100 %
31.08.2017 16:50 16,6 C 16,6 C 16,7 C 87 % 1017,0 hPa 0,0 l/m 2,9 km/h (1 Bft) W-SW 256 0 min 0,000 mm 33 W/m 14,4 C 16,6 C 11,3 km/h (2 Bft) 100 %
31.08.2017 17:00 16,3 C 16,3 C 16,6 C 87 % 1016,8 hPa 0,2 l/m 2,5 km/h (1 Bft) W 265 0 min 0,025 mm 62 W/m 14,1 C 16,3 C 9,7 km/h (2 Bft) 100 %
31.08.2017 17:10 16,2 C 16,2 C 16,3 C 88 % 1017,0 hPa 0,0 l/m 1,7 km/h (1 Bft) W 265 0 min 0,000 mm 74 W/m 14,2 C 16,2 C 8,0 km/h (2 Bft) 100 %
31.08.2017 17:20 16,2 C 16,2 C 16,2 C 89 % 1017,2 hPa 0,0 l/m 5,0 km/h (1 Bft) S-SW 196 0 min 0,000 mm 134 W/m 14,4 C 16,2 C 9,7 km/h (2 Bft) 99 %
31.08.2017 17:30 16,1 C 16,1 C 16,2 C 89 % 1017,1 hPa 0,0 l/m 7,1 km/h (2 Bft) S-SW 210 0 min 0,000 mm 86 W/m 14,3 C 15,7 C 17,7 km/h (3 Bft) 100 %
31.08.2017 17:40 15,9 C 15,9 C 16,2 C 89 % 1017,4 hPa 0,0 l/m 8,4 km/h (2 Bft) SW 223 0 min 0,000 mm 116 W/m 14,1 C 14,8 C 19,3 km/h (3 Bft) 99 %
31.08.2017 17:50 15,9 C 15,8 C 15,9 C 89 % 1017,3 hPa 0,0 l/m 5,5 km/h (1 Bft) S-SW 204 0 min 0,000 mm 74 W/m 14,1 C 15,9 C 14,5 km/h (3 Bft) 99 %
31.08.2017 18:00 15,8 C 15,8 C 15,9 C 89 % 1017,4 hPa 0,0 l/m 4,2 km/h (1 Bft) SW 219 0 min 0,051 mm 54 W/m 14,0 C 15,8 C 9,7 km/h (2 Bft) 100 %
31.08.2017 18:10 15,7 C 15,7 C 15,8 C 89 % 1017,3 hPa 0,0 l/m 2,5 km/h (1 Bft) SW 232 0 min 0,000 mm 19 W/m 13,9 C 15,7 C 9,7 km/h (2 Bft) 100 %
31.08.2017 18:20 15,6 C 15,6 C 15,7 C 89 % 1017,4 hPa 0,0 l/m 3,0 km/h (1 Bft) SW 220 0 min 0,000 mm 12 W/m 13,8 C 15,6 C 9,7 km/h (2 Bft) 98 %
31.08.2017 18:30 15,6 C 15,6 C 15,6 C 89 % 1017,4 hPa 0,0 l/m 4,0 km/h (1 Bft) SW 232 0 min 0,000 mm 16 W/m 13,8 C 15,6 C 8,0 km/h (2 Bft) 98 %
31.08.2017 18:40 15,5 C 15,5 C 15,6 C 89 % 1017,4 hPa 0,0 l/m 3,4 km/h (1 Bft) S-SW 205 0 min 0,000 mm 54 W/m 13,7 C 15,5 C 9,7 km/h (2 Bft) 98 %
31.08.2017 18:50 15,5 C 15,5 C 15,5 C 89 % 1017,5 hPa 0,0 l/m 5,2 km/h (1 Bft) S-SW 209 0 min 0,000 mm 69 W/m 13,7 C 15,5 C 9,7 km/h (2 Bft) 97 %
31.08.2017 19:00 15,6 C 15,5 C 15,6 C 89 % 1017,5 hPa 0,0 l/m 2,4 km/h (1 Bft) S-SW 207 0 min 0,025 mm 58 W/m 13,8 C 15,6 C 8,0 km/h (2 Bft) 98 %
31.08.2017 19:10 15,6 C 15,6 C 15,6 C 89 % 1017,6 hPa 0,0 l/m 0,0 km/h (0 Bft) SW 223 0 min 0,000 mm 37 W/m 13,8 C 15,6 C 1,6 km/h (1 Bft) 97 %
31.08.2017 19:20 15,5 C 15,5 C 15,6 C 89 % 1017,6 hPa 0,0 l/m 0,2 km/h (0 Bft) W-SW 248 0 min 0,000 mm 33 W/m 13,7 C 15,5 C 4,8 km/h (1 Bft) 98 %
31.08.2017 19:30 15,4 C 15,4 C 15,5 C 89 % 1017,7 hPa 0,0 l/m 2,1 km/h (1 Bft) W-SW 245 0 min 0,000 mm 35 W/m 13,6 C 15,4 C 9,7 km/h (2 Bft) 97 %
31.08.2017 19:40 15,3 C 15,3 C 15,4 C 89 % 1017,9 hPa 0,0 l/m 1,2 km/h (1 Bft) W-SW 255 0 min 0,000 mm 25 W/m 13,5 C 15,3 C 9,7 km/h (2 Bft) 97 %
31.08.2017 19:50 15,3 C 15,3 C 15,3 C 89 % 1018,0 hPa 0,0 l/m 1,7 km/h (1 Bft) W-SW 252 0 min 0,000 mm 11 W/m 13,5 C 15,3 C 9,7 km/h (2 Bft) 98 %
31.08.2017 20:00 15,2 C 15,2 C 15,3 C 89 % 1018,0 hPa 0,0 l/m 2,6 km/h (1 Bft) W-SW 254 0 min 0,026 mm 5 W/m 13,4 C 15,2 C 8,0 km/h (2 Bft) 97 %
31.08.2017 20:10 15,1 C 15,1 C 15,2 C 89 % 1018,1 hPa 0,0 l/m 0,4 km/h (0 Bft) W-SW 255 0 min 0,000 mm 0 W/m 13,3 C 15,1 C 4,8 km/h (1 Bft) 98 %
31.08.2017 20:20 15,1 C 15,1 C 15,1 C 89 % 1018,4 hPa 0,0 l/m 2,7 km/h (1 Bft) W-SW 250 0 min 0,000 mm 0 W/m 13,3 C 15,1 C 8,0 km/h (2 Bft) 98 %
31.08.2017 20:30 15,1 C 15,1 C 15,1 C 89 % 1018,4 hPa 0,0 l/m 0,3 km/h (0 Bft) W 267 0 min 0,000 mm 0 W/m 13,3 C 15,1 C 4,8 km/h (1 Bft) 89 %
31.08.2017 20:40 15,1 C 15,1 C 15,1 C 89 % 1018,5 hPa 0,0 l/m 0,3 km/h (0 Bft) W 265 0 min 0,000 mm 0 W/m 13,3 C 15,1 C 4,8 km/h (1 Bft) 97 %
31.08.2017 20:50 15,1 C 15,1 C 15,1 C 89 % 1018,5 hPa 0,0 l/m 1,5 km/h (1 Bft) W 265 0 min 0,000 mm 0 W/m 13,3 C 15,1 C 4,8 km/h (1 Bft) 98 %
31.08.2017 21:00 15,1 C 15,1 C 15,1 C 89 % 1018,6 hPa 0,0 l/m 0,0 km/h (0 Bft) W 265 0 min 0,000 mm 0 W/m 13,3 C 15,1 C 0,0 km/h (0 Bft) 97 %
31.08.2017 21:10 15,1 C 15,1 C 15,1 C 89 % 1018,8 hPa 0,0 l/m 1,6 km/h (1 Bft) W 270 0 min 0,000 mm 0 W/m 13,3 C 15,1 C 6,4 km/h (2 Bft) 100 %
31.08.2017 21:20 15,1 C 15,1 C 15,1 C 89 % 1019,0 hPa 0,0 l/m 1,6 km/h (1 Bft) W 270 0 min 0,000 mm 0 W/m 13,3 C 15,1 C 6,4 km/h (2 Bft) 100 %
31.08.2017 21:30 14,9 C 14,9 C 15,1 C 89 % 1019,0 hPa 0,0 l/m 0,0 km/h (0 Bft) N 0 0 min 0,000 mm 0 W/m 13,1 C 14,9 C 0,0 km/h (0 Bft) 100 %
31.08.2017 21:40 14,9 C 14,9 C 15,0 C 89 % 1019,0 hPa 0,0 l/m 0,0 km/h (0 Bft) N 0 0 min 0,000 mm 0 W/m 13,1 C 14,9 C 0,0 km/h (0 Bft) 99 %
31.08.2017 21:50 14,9 C 14,9 C 14,9 C 89 % 1019,1 hPa 0,0 l/m 0,0 km/h (0 Bft) N 0 0 min 0,000 mm 0 W/m 13,1 C 14,9 C 0,0 km/h (0 Bft) 100 %
31.08.2017 22:00 14,9 C 14,9 C 14,9 C 89 % 1018,9 hPa 0,0 l/m 0,0 km/h (0 Bft) N 0 0 min 0,000 mm 0 W/m 13,1 C 14,9 C 0,0 km/h (0 Bft) 100 %
31.08.2017 22:10 14,8 C 14,8 C 14,9 C 89 % 1019,0 hPa 0,0 l/m 0,0 km/h (0 Bft) N 0 0 min 0,000 mm 0 W/m 13,0 C 14,8 C 0,0 km/h (0 Bft) 99 %
31.08.2017 22:20 14,9 C 14,8 C 14,9 C 89 % 1019,0 hPa 0,0 l/m 0,0 km/h (0 Bft) N 0 0 min 0,000 mm 0 W/m 13,1 C 14,9 C 0,0 km/h (0 Bft) 100 %
31.08.2017 22:30 14,8 C 14,8 C 14,9 C 89 % 1018,9 hPa 0,0 l/m 0,0 km/h (0 Bft) N 0 0 min 0,000 mm 0 W/m 13,0 C 14,8 C 0,0 km/h (0 Bft) 100 %
31.08.2017 22:40 14,8 C 14,8 C 14,8 C 89 % 1019,0 hPa 0,0 l/m 0,0 km/h (0 Bft) N 0 0 min 0,000 mm 0 W/m 13,0 C 14,8 C 0,0 km/h (0 Bft) 100 %
31.08.2017 22:50 14,7 C 14,7 C 14,8 C 89 % 1019,0 hPa 0,0 l/m 0,0 km/h (0 Bft) N 0 0 min 0,000 mm 0 W/m 12,9 C 14,7 C 0,0 km/h (0 Bft) 99 %
31.08.2017 23:00 14,7 C 14,7 C 14,7 C 89 % 1019,2 hPa 0,0 l/m 0,0 km/h (0 Bft) N 0 0 min 0,000 mm 0 W/m 12,9 C 14,7 C 0,0 km/h (0 Bft) 100 %
31.08.2017 23:10 14,7 C 14,7 C 14,7 C 89 % 1019,3 hPa 0,0 l/m 0,0 km/h (0 Bft) N 0 0 min 0,000 mm 0 W/m 12,9 C 14,7 C 0,0 km/h (0 Bft) 100 %
31.08.2017 23:20 14,7 C 14,6 C 14,7 C 89 % 1019,4 hPa 0,0 l/m 0,0 km/h (0 Bft) N 0 0 min 0,000 mm 0 W/m 12,9 C 14,7 C 0,0 km/h (0 Bft) 100 %
31.08.2017 23:30 14,6 C 14,6 C 14,7 C 89 % 1019,5 hPa 0,0 l/m 0,0 km/h (0 Bft) N 0 0 min 0,000 mm 0 W/m 12,8 C 14,6 C 0,0 km/h (0 Bft) 100 %
31.08.2017 23:40 14,6 C 14,6 C 14,6 C 89 % 1019,6 hPa 0,0 l/m 0,0 km/h (0 Bft) N 0 0 min 0,000 mm 0 W/m 12,8 C 14,6 C 0,0 km/h (0 Bft) 100 %
31.08.2017 23:50 14,6 C 14,6 C 14,6 C 89 % 1019,5 hPa 0,0 l/m 0,0 km/h (0 Bft) N 0 0 min 0,000 mm 0 W/m 12,8 C 14,6 C 0,0 km/h (0 Bft) 100 %
_ Min-Zeit 23:20 23:20 23:40 15:40 06:40 - 00:00 - - - - - 23:30 23:30 00:00 20:30
Minimum _ 14,6 C 14,6 C 14,6 C 82 % 1009,2 hPa - 0,0 km/h (0 Bft) - - - - - 12,8 C 14,6 C 0,0 km/h (0 Bft) 89 %
_ Max-Zeit 00:00 00:00 00:00 03:00 23:40 08:20 13:20 - - 11:10 14:00 13:40 10:30 00:00 11:00 10:40
Maximum _ 18,6 C 18,5 C 18,6 C 89 % 1019,6 hPa 2,8 l/m 12,4 km/h
S-SW (3 Bft)
- - 10 min 0,127 mm 376 W/m 16,7 C 18,5 C 29,0 km/h
W (5 Bft)
100 %
Durchschnitt _ 17,0 C 17,0 C 17,1 C 88 % 1013,8 hPa #7,4 l/m 3,1 km/h (1 Bft) S-SW - #2:20 h #0,813 mm 95 W/m 15,1 C 16,8 C 7,9 km/h (2 Bft) 99 %
PRIVATE WETTERSTATION BILLIGHEIM-ALLFELD - www.neckar-odenwald-wetter.de - Holger Sonntag